Cap Maleas — P3ZA9 — position and weather

sailwx.info

Track history (hours):
 
Tides and Currents Weather Stations Pressure Air Temp Water Temp Dewpoint Dewpoint Depression Visibility Wind Speed Wind Dir Waves Ship Positions

Cap Maleas

Last reported at 2017-Oct-17 09:15 UTC. Time now 2017-Oct-17 23:58 UTC.
Position N 35°57' W 005°31'.

Length 176 m; draft 8.8 m.

Type: Cargo ship. MMSI: 209309000.

Date/timePositionNaut miles runAvg speedWind from/ knotsBaromVisibWave heightAir tempDewpointWater temp
2017-Oct-17 09:15N 35°57' W 005°31'2 8.2
2017-Oct-17 09:00N 35°58' W 005°30'3 6.4
2017-Oct-17 08:31N 35°59' W 005°26'4 7.6
2017-Oct-17 08:00N 36°00' W 005°22'1 1.5
2017-Oct-17 07:31N 35°60' W 005°21'10 5.7
2017-Oct-17 05:41N 35°57' W 005°34'1 6.1
2017-Oct-17 05:31N 35°58' W 005°33'3 7.0
2017-Oct-17 05:00N 35°59' W 005°29'4 7.8
2017-Oct-17 04:30N 35°60' W 005°24'4 8.2
2017-Oct-17 04:01N 36°00' W 005°19'611.2
2017-Oct-17 03:30N 35°60' W 005°12'712.6
2017-Oct-17 02:55N 35°57' W 005°04'4 0.1
2017-Oct-15 22:05N 35°53' W 005°05'0 0.8
2017-Oct-15 21:57N 35°53' W 005°05'0 0.8
2017-Oct-15 21:21N 35°53' W 005°05'4 0.5
2017-Oct-15 13:08N 35°52' W 005°00'13 7.6
2017-Oct-15 11:24N 35°56' W 005°15'4 9.3
2017-Oct-15 11:00N 35°57' W 005°19'5 8.9
2017-Oct-15 10:27N 35°57' W 005°26'51 7.1
2017-Oct-15 03:13N 35°33' W 006°21'4 7.9
2017-Oct-15 02:43N 35°30' W 006°25'2 7.9
2017-Oct-15 02:28N 35°29' W 006°27'4 7.8
2017-Oct-15 02:00N 35°26' W 006°30'4 8.1
2017-Oct-15 01:30N 35°23' W 006°33'5 7.8
2017-Oct-15 00:48N 35°19' W 006°38'2 7.9
2017-Oct-15 00:30N 35°18' W 006°40'4 8.1
2017-Oct-15 00:00N 35°15' W 006°44'15 7.9
2017-Oct-14 22:05N 35°04' W 006°57'433 9.2
2017-Oct-12 22:57N 29°33' W 012°26'511.3
2017-Oct-12 22:29N 29°29' W 012°30'611.5
2017-Oct-12 22:00N 29°24' W 012°33'611.4
2017-Oct-12 21:30N 29°19' W 012°37'612.7
2017-Oct-12 21:00N 29°14' W 012°41'713.4
2017-Oct-12 20:29N 29°08' W 012°45'713.8
2017-Oct-12 20:00N 29°02' W 012°49'713.6
2017-Oct-12 19:30N 28°57' W 012°53'713.3
2017-Oct-12 19:00N 28°51' W 012°58'713.5
2017-Oct-12 18:30N 28°46' W 013°02'713.6
2017-Oct-12 18:00N 28°40' W 013°06'713.7
2017-Oct-12 17:30N 28°34' W 013°11'713.5
2017-Oct-12 17:00N 28°29' W 013°15'713.3
2017-Oct-12 16:30N 28°23' W 013°20'714.0
2017-Oct-12 16:00N 28°18' W 013°24'714.0
2017-Oct-12 15:31N 28°12' W 013°29'713.8
2017-Oct-12 15:01N 28°06' W 013°33'713.5
2017-Oct-12 14:29N 28°01' W 013°38'613.4
2017-Oct-12 14:01N 27°55' W 013°42'713.5
2017-Oct-12 13:30N 27°50' W 013°46'713.5
2017-Oct-12 13:00N 27°44' W 013°51'713.7
2017-Oct-12 12:30N 27°38' W 013°55'713.7
2017-Oct-12 12:00N 27°33' W 013°59'713.8
2017-Oct-12 11:31N 27°27' W 014°03'713.6
2017-Oct-12 11:01N 27°21' W 014°08'713.6
2017-Oct-12 10:30N 27°16' W 014°12'713.3
2017-Oct-12 10:00N 27°10' W 014°16'813.2
2017-Oct-12 09:23N 27°03' W 014°21'513.2
2017-Oct-12 09:00N 26°59' W 014°24'713.1
2017-Oct-12 08:29N 26°53' W 014°28'613.0
2017-Oct-12 08:00N 26°48' W 014°32'613.0
2017-Oct-12 07:30N 26°43' W 014°36'712.9
2017-Oct-12 07:00N 26°37' W 014°41'612.7
2017-Oct-12 06:31N 26°32' W 014°44'612.7
2017-Oct-12 06:00N 26°27' W 014°48'612.7
2017-Oct-12 05:31N 26°22' W 014°52'712.6
2017-Oct-12 04:56N 26°16' W 014°57'  
Track history (hours):
 
Tides and Currents Weather Stations Pressure Air Temp Water Temp Dewpoint Dewpoint Depression Visibility Wind Speed Wind Dir Waves Ship Positions

Cap Maleas

Last reported at 2017-Oct-17 09:15 UTC. Time now 2017-Oct-17 23:58 UTC.
Position N 35°57' W 005°31'.

Length 176 m; draft 8.8 m.

Type: Cargo ship. MMSI: 209309000.

Date/timePositionNaut miles runAvg speedWind from/ knotsBaromVisibWave heightAir tempDewpointWater temp
2017-Oct-17 09:15N 35°57' W 005°31'2 8.2
2017-Oct-17 09:00N 35°58' W 005°30'3 6.4
2017-Oct-17 08:31N 35°59' W 005°26'4 7.6
2017-Oct-17 08:00N 36°00' W 005°22'1 1.5
2017-Oct-17 07:31N 35°60' W 005°21'10 5.7
2017-Oct-17 05:41N 35°57' W 005°34'1 6.1
2017-Oct-17 05:31N 35°58' W 005°33'3 7.0
2017-Oct-17 05:00N 35°59' W 005°29'4 7.8
2017-Oct-17 04:30N 35°60' W 005°24'4 8.2
2017-Oct-17 04:01N 36°00' W 005°19'611.2
2017-Oct-17 03:30N 35°60' W 005°12'712.6
2017-Oct-17 02:55N 35°57' W 005°04'4 0.1
2017-Oct-15 22:05N 35°53' W 005°05'0 0.8
2017-Oct-15 21:57N 35°53' W 005°05'0 0.8
2017-Oct-15 21:21N 35°53' W 005°05'4 0.5
2017-Oct-15 13:08N 35°52' W 005°00'13 7.6
2017-Oct-15 11:24N 35°56' W 005°15'4 9.3
2017-Oct-15 11:00N 35°57' W 005°19'5 8.9
2017-Oct-15 10:27N 35°57' W 005°26'51 7.1
2017-Oct-15 03:13N 35°33' W 006°21'4 7.9
2017-Oct-15 02:43N 35°30' W 006°25'2 7.9
2017-Oct-15 02:28N 35°29' W 006°27'4 7.8
2017-Oct-15 02:00N 35°26' W 006°30'4 8.1
2017-Oct-15 01:30N 35°23' W 006°33'5 7.8
2017-Oct-15 00:48N 35°19' W 006°38'2 7.9
2017-Oct-15 00:30N 35°18' W 006°40'4 8.1
2017-Oct-15 00:00N 35°15' W 006°44'15 7.9
2017-Oct-14 22:05N 35°04' W 006°57'433 9.2
2017-Oct-12 22:57N 29°33' W 012°26'511.3
2017-Oct-12 22:29N 29°29' W 012°30'611.5
2017-Oct-12 22:00N 29°24' W 012°33'611.4
2017-Oct-12 21:30N 29°19' W 012°37'612.7
2017-Oct-12 21:00N 29°14' W 012°41'713.4
2017-Oct-12 20:29N 29°08' W 012°45'713.8
2017-Oct-12 20:00N 29°02' W 012°49'713.6
2017-Oct-12 19:30N 28°57' W 012°53'713.3
2017-Oct-12 19:00N 28°51' W 012°58'713.5
2017-Oct-12 18:30N 28°46' W 013°02'713.6
2017-Oct-12 18:00N 28°40' W 013°06'713.7
2017-Oct-12 17:30N 28°34' W 013°11'713.5
2017-Oct-12 17:00N 28°29' W 013°15'713.3
2017-Oct-12 16:30N 28°23' W 013°20'714.0
2017-Oct-12 16:00N 28°18' W 013°24'714.0
2017-Oct-12 15:31N 28°12' W 013°29'713.8
2017-Oct-12 15:01N 28°06' W 013°33'713.5
2017-Oct-12 14:29N 28°01' W 013°38'613.4
2017-Oct-12 14:01N 27°55' W 013°42'713.5
2017-Oct-12 13:30N 27°50' W 013°46'713.5
2017-Oct-12 13:00N 27°44' W 013°51'713.7
2017-Oct-12 12:30N 27°38' W 013°55'713.7
2017-Oct-12 12:00N 27°33' W 013°59'713.8
2017-Oct-12 11:31N 27°27' W 014°03'713.6
2017-Oct-12 11:01N 27°21' W 014°08'713.6
2017-Oct-12 10:30N 27°16' W 014°12'713.3
2017-Oct-12 10:00N 27°10' W 014°16'813.2
2017-Oct-12 09:23N 27°03' W 014°21'513.2
2017-Oct-12 09:00N 26°59' W 014°24'713.1
2017-Oct-12 08:29N 26°53' W 014°28'613.0
2017-Oct-12 08:00N 26°48' W 014°32'613.0
2017-Oct-12 07:30N 26°43' W 014°36'712.9
2017-Oct-12 07:00N 26°37' W 014°41'612.7
2017-Oct-12 06:31N 26°32' W 014°44'612.7
2017-Oct-12 06:00N 26°27' W 014°48'612.7
2017-Oct-12 05:31N 26°22' W 014°52'712.6
2017-Oct-12 04:56N 26°16' W 014°57'  

Dump ship's entire track history